createdAt,value
2018-01-20T00:02:11.313Z,124.87
2018-01-20T00:04:37.745Z,127.03
2018-01-20T00:07:04.160Z,91.50
2018-01-20T00:09:42.865Z,79.43
2018-01-20T00:12:09.189Z,72.00
2018-01-20T00:14:35.584Z,66.90
2018-01-20T00:17:02.944Z,55.27
2018-01-20T00:19:29.329Z,54.57
2018-01-20T00:21:55.756Z,49.87
2018-01-20T00:24:22.262Z,47.53
2018-01-20T00:26:50.573Z,47.43
2018-01-20T00:29:16.956Z,48.77
2018-01-20T00:31:43.406Z,47.50
2018-01-20T00:34:09.814Z,42.60
2018-01-20T00:36:36.173Z,38.67
2018-01-20T00:39:02.716Z,39.87
2018-01-20T00:41:29.110Z,37.73
2018-01-20T00:43:55.512Z,36.73
2018-01-20T00:46:21.981Z,38.00
2018-01-20T00:48:48.414Z,35.13
2018-01-20T00:51:14.802Z,37.43
2018-01-20T00:53:41.241Z,36.73
2018-01-20T00:56:07.665Z,37.30
2018-01-20T00:58:34.036Z,38.67
2018-01-20T01:01:00.435Z,42.27
2018-01-20T01:03:26.788Z,36.80
2018-01-20T01:05:53.173Z,36.83
2018-01-20T01:08:19.632Z,38.07
2018-01-20T01:10:46.041Z,36.23
2018-01-20T01:13:12.465Z,37.80
2018-01-20T01:15:38.925Z,36.80
2018-01-20T01:18:05.373Z,40.30
2018-01-20T01:20:31.849Z,35.97
2018-01-20T01:22:58.354Z,39.97
2018-01-20T01:25:24.708Z,46.67
2018-01-20T01:27:51.101Z,41.70
2018-01-20T01:30:17.549Z,46.17
2018-01-20T01:32:43.961Z,38.80
2018-01-20T01:35:10.362Z,33.97
2018-01-20T01:37:36.753Z,26.83
2018-01-20T01:40:03.189Z,29.70
2018-01-20T01:42:29.649Z,27.10
2018-01-20T01:44:56.021Z,27.23
2018-01-20T01:47:22.449Z,24.03
2018-01-20T01:49:48.893Z,23.40
2018-01-20T01:52:15.325Z,22.50
2018-01-20T01:54:41.782Z,20.57
2018-01-20T01:57:08.209Z,20.57
2018-01-20T01:59:34.632Z,21.10
2018-01-20T02:02:01.057Z,20.80
2018-01-20T02:04:27.477Z,24.50
2018-01-20T02:06:53.888Z,26.77
2018-01-20T02:09:20.300Z,25.73
2018-01-20T02:11:46.741Z,26.60
2018-01-20T02:14:13.168Z,30.83
2018-01-20T02:16:39.534Z,29.70
2018-01-20T02:19:05.914Z,28.37
2018-01-20T02:21:32.329Z,25.97
2018-01-20T02:23:58.770Z,29.90
2018-01-20T02:26:25.596Z,23.30
2018-01-20T02:28:52.025Z,23.90
2018-01-20T02:31:18.431Z,26.47
2018-01-20T02:33:44.841Z,23.17
2018-01-20T02:36:11.333Z,24.90
2018-01-20T02:38:37.730Z,25.63
2018-01-20T02:41:04.117Z,28.07
2018-01-20T02:43:30.528Z,30.70
2018-01-20T02:45:56.904Z,27.87
2018-01-20T02:48:23.320Z,25.90
2018-01-20T02:50:49.802Z,27.00
2018-01-20T02:53:16.205Z,28.67
2018-01-20T02:55:42.657Z,26.63
2018-01-20T02:58:09.105Z,26.77
2018-01-20T03:00:35.538Z,27.83
2018-01-20T03:03:01.941Z,26.50
2018-01-20T03:05:28.380Z,23.47
2018-01-20T03:07:54.849Z,25.23
2018-01-20T03:10:21.229Z,24.13
2018-01-20T03:12:48.368Z,22.23
2018-01-20T03:15:14.812Z,26.97
2018-01-20T03:17:41.208Z,23.80
2018-01-20T03:20:07.637Z,26.60
2018-01-20T03:22:34.049Z,22.90
2018-01-20T03:25:00.433Z,23.80
2018-01-20T03:27:26.848Z,22.03
2018-01-20T03:29:53.235Z,20.63
2018-01-20T03:32:19.609Z,20.70
2018-01-20T03:34:46.057Z,20.57
2018-01-20T03:37:12.473Z,22.33
2018-01-20T03:39:38.889Z,24.40
2018-01-20T03:42:05.281Z,24.00
2018-01-20T03:44:31.789Z,27.07
2018-01-20T03:46:58.224Z,23.00
2018-01-20T03:49:24.692Z,25.07
2018-01-20T03:51:51.046Z,27.30
2018-01-20T03:54:17.437Z,22.67
2018-01-20T03:56:43.864Z,19.47
2018-01-20T03:59:10.273Z,30.10
2018-01-20T04:01:36.688Z,24.97
2018-01-20T04:04:03.125Z,20.23
2018-01-20T04:06:29.598Z,22.20
2018-01-20T04:08:55.976Z,22.80
2018-01-20T04:11:22.376Z,28.43
2018-01-20T04:13:48.773Z,27.60
2018-01-20T04:16:15.164Z,31.57
2018-01-20T04:18:41.576Z,28.27
2018-01-20T04:21:07.953Z,30.53
2018-01-20T04:23:34.313Z,32.00
2018-01-20T04:26:00.793Z,38.10
2018-01-20T04:28:27.231Z,40.93
2018-01-20T04:30:53.621Z,42.80
2018-01-20T04:33:20.071Z,44.23
2018-01-20T04:35:46.453Z,54.97
2018-01-20T04:38:12.898Z,51.40
2018-01-20T04:40:39.333Z,47.30
2018-01-20T04:43:05.773Z,49.10
2018-01-20T04:45:32.203Z,42.43
2018-01-20T04:47:58.573Z,40.33
2018-01-20T04:50:24.949Z,34.90
2018-01-20T04:52:51.317Z,34.60
2018-01-20T04:55:17.833Z,41.17
2018-01-20T04:57:44.197Z,34.53
2018-01-20T05:00:10.582Z,34.83
2018-01-20T05:02:37.053Z,47.77
2018-01-20T05:05:03.509Z,44.87
2018-01-20T05:07:29.857Z,39.60
2018-01-20T05:09:56.240Z,37.67
2018-01-20T05:12:22.637Z,35.90
2018-01-20T05:14:49.080Z,37.30
2018-01-20T05:17:15.482Z,30.70
2018-01-20T05:19:41.915Z,37.93
2018-01-20T05:22:08.316Z,35.13
2018-01-20T05:24:34.719Z,35.30
2018-01-20T05:27:01.397Z,40.83
2018-01-20T05:29:27.862Z,37.43
2018-01-20T05:31:54.240Z,39.10
2018-01-20T05:34:20.617Z,34.73
2018-01-20T05:36:47.091Z,33.80
2018-01-20T05:39:13.484Z,35.27
2018-01-20T05:41:39.889Z,32.97
2018-01-20T05:44:06.299Z,41.23
2018-01-20T05:46:32.837Z,49.40
2018-01-20T05:48:59.249Z,76.43
2018-01-20T05:51:25.631Z,83.43
2018-01-20T05:53:52.011Z,84.27
2018-01-20T05:56:18.416Z,66.50
2018-01-20T05:58:44.818Z,70.30
2018-01-20T06:01:11.261Z,62.00
2018-01-20T06:03:37.701Z,45.03
2018-01-20T06:06:04.102Z,43.33
2018-01-20T06:08:30.518Z,48.53
2018-01-20T06:10:56.944Z,51.40
2018-01-20T06:13:23.441Z,51.07
2018-01-20T06:15:49.790Z,51.00
2018-01-20T06:18:16.198Z,51.73
2018-01-20T06:20:42.609Z,50.23
2018-01-20T06:23:09.012Z,55.43
2018-01-20T06:25:35.449Z,47.47
2018-01-20T06:28:01.854Z,55.97
2018-01-20T06:30:28.353Z,55.77
2018-01-20T06:32:54.702Z,118.87
2018-01-20T06:35:21.121Z,133.87
2018-01-20T06:37:47.577Z,101.30
2018-01-20T06:40:13.967Z,100.10
2018-01-20T06:42:40.373Z,109.43
2018-01-20T06:45:06.856Z,119.90
2018-01-20T06:47:33.241Z,127.50
2018-01-20T06:49:59.709Z,114.13
2018-01-20T06:52:26.105Z,96.67
2018-01-20T06:54:52.480Z,101.83
2018-01-20T06:57:18.868Z,105.87
2018-01-20T06:59:45.311Z,107.87
2018-01-20T07:02:11.702Z,107.90
2018-01-20T07:04:38.073Z,123.50
2018-01-20T07:07:04.501Z,97.57
2018-01-20T07:09:30.917Z,187.00
2018-01-20T07:11:57.297Z,179.07
2018-01-20T07:14:23.653Z,107.00
2018-01-20T07:16:50.136Z,83.67
2018-01-20T07:19:16.553Z,96.73
2018-01-20T07:21:43.006Z,96.93
2018-01-20T07:24:09.376Z,99.30
2018-01-20T07:26:35.753Z,89.47
2018-01-20T07:29:09.264Z,85.10
2018-01-20T07:31:35.816Z,87.03
2018-01-20T07:34:02.242Z,95.20
2018-01-20T07:36:28.665Z,99.20
2018-01-20T07:38:55.150Z,94.47
2018-01-20T07:41:21.542Z,102.87
2018-01-20T07:43:47.905Z,97.60
2018-01-20T07:46:14.318Z,103.03
2018-01-20T07:48:40.729Z,97.43
2018-01-20T07:51:07.205Z,105.27
2018-01-20T07:53:33.686Z,122.67
2018-01-20T07:56:00.046Z,117.67
2018-01-20T07:58:26.457Z,125.43
2018-01-20T08:00:52.898Z,125.30
2018-01-20T08:03:19.248Z,126.80
2018-01-20T08:05:45.669Z,116.93
2018-01-20T08:08:12.093Z,116.10
2018-01-20T08:10:38.624Z,123.37
2018-01-20T08:13:05.089Z,119.33
2018-01-20T08:15:31.721Z,112.20
2018-01-20T08:17:58.097Z,115.43
2018-01-20T08:20:24.449Z,127.73
2018-01-20T08:22:50.860Z,138.73
2018-01-20T08:25:17.221Z,142.00
2018-01-20T08:27:43.869Z,161.00
2018-01-20T08:30:10.258Z,172.53
2018-01-20T08:32:36.613Z,194.30
2018-01-20T08:35:03.069Z,181.70
2018-01-20T08:37:29.460Z,187.90
2018-01-20T08:39:55.869Z,195.33
2018-01-20T08:42:22.230Z,194.60
2018-01-20T08:44:48.612Z,200.00
2018-01-20T08:47:15.095Z,244.00
2018-01-20T08:49:41.481Z,277.53
2018-01-20T08:52:07.913Z,312.90
2018-01-20T08:54:34.297Z,383.87
2018-01-20T08:57:00.657Z,398.07
2018-01-20T08:59:27.105Z,404.83
2018-01-20T09:01:53.461Z,394.83
2018-01-20T09:04:19.856Z,405.87
2018-01-20T09:06:46.333Z,403.20
2018-01-20T09:09:12.679Z,407.97
2018-01-20T09:11:39.093Z,378.53
2018-01-20T09:14:05.593Z,390.90
2018-01-20T09:16:31.968Z,407.03
2018-01-20T09:18:58.337Z,372.20
2018-01-20T09:21:24.770Z,362.60
2018-01-20T09:23:51.125Z,374.10
2018-01-20T09:26:17.545Z,354.77
2018-01-20T09:28:43.980Z,368.03
2018-01-20T09:31:10.393Z,357.80
2018-01-20T09:33:36.755Z,279.37
2018-01-20T09:36:03.196Z,327.93
2018-01-20T09:38:29.605Z,350.33
2018-01-20T09:40:56.010Z,340.53
2018-01-20T09:43:22.377Z,318.30
2018-01-20T09:45:48.725Z,257.47
2018-01-20T09:48:15.157Z,215.60
2018-01-20T09:50:41.552Z,276.50
2018-01-20T09:53:07.969Z,183.83
2018-01-20T09:55:34.377Z,114.10
2018-01-20T09:58:00.760Z,67.10
2018-01-20T10:00:27.102Z,62.53
2018-01-20T10:02:53.504Z,58.23
2018-01-20T10:05:19.889Z,51.90
2018-01-20T10:07:46.281Z,49.27
2018-01-20T10:10:12.666Z,49.87
2018-01-20T10:12:39.065Z,54.33
2018-01-20T10:15:05.413Z,41.03
2018-01-20T10:17:31.765Z,75.90
2018-01-20T10:19:58.185Z,61.23
2018-01-20T10:22:24.541Z,49.27
2018-01-20T10:24:50.940Z,52.97
2018-01-20T10:27:17.325Z,62.47
2018-01-20T10:42:49.333Z,89.63
2018-01-20T10:45:15.721Z,69.03
2018-01-20T10:47:42.120Z,68.87
2018-01-20T10:50:08.534Z,82.73
2018-01-20T10:52:34.953Z,95.03
2018-01-20T10:55:01.435Z,76.40
2018-01-20T10:57:27.970Z,48.67
2018-01-20T10:59:54.349Z,43.27
2018-01-20T11:02:20.809Z,47.30
2018-01-20T11:04:47.205Z,45.30
2018-01-20T11:07:13.676Z,45.20
2018-01-20T11:09:40.137Z,58.43
2018-01-20T11:12:06.517Z,61.90
2018-01-20T11:14:32.900Z,58.37
2018-01-20T11:16:59.276Z,56.00
2018-01-20T11:19:25.733Z,55.53
2018-01-20T11:21:52.112Z,54.47
2018-01-20T11:24:18.617Z,57.03
2018-01-20T11:26:45.045Z,52.87
2018-01-20T11:29:11.417Z,46.23
2018-01-20T11:31:37.826Z,49.50
2018-01-20T11:34:04.244Z,40.43
2018-01-20T11:36:30.661Z,41.30
2018-01-20T11:38:57.304Z,33.87
2018-01-20T11:41:23.757Z,40.87
2018-01-20T11:43:50.331Z,40.53
2018-01-20T11:46:16.737Z,39.33
2018-01-20T11:48:43.244Z,39.40
2018-01-20T11:51:09.641Z,48.47
2018-01-20T11:53:36.021Z,45.00
2018-01-20T11:56:02.471Z,51.50
2018-01-20T11:58:29.016Z,50.33
2018-01-20T12:00:55.545Z,41.60
2018-01-20T12:03:21.981Z,43.77
2018-01-20T12:05:48.365Z,42.67
2018-01-20T12:08:14.743Z,41.70
2018-01-20T12:10:41.257Z,48.70
2018-01-20T12:13:07.636Z,47.87
2018-01-20T12:15:34.038Z,45.73
2018-01-20T12:18:00.409Z,49.60
2018-01-20T12:20:26.883Z,51.43
2018-01-20T12:22:53.266Z,56.33
2018-01-20T12:25:19.891Z,56.63
2018-01-20T12:27:46.326Z,54.47
2018-01-20T12:30:12.915Z,53.30
2018-01-20T12:32:39.302Z,57.63
2018-01-20T12:35:05.955Z,52.47
2018-01-20T12:37:32.359Z,55.37
2018-01-20T12:39:58.718Z,55.20
2018-01-20T12:42:25.186Z,57.83
2018-01-20T12:44:51.647Z,57.87
2018-01-20T12:47:18.018Z,55.47
2018-01-20T12:49:44.514Z,58.40
2018-01-20T12:52:10.934Z,66.93
2018-01-20T12:54:37.294Z,61.93
2018-01-20T12:57:03.679Z,57.67
2018-01-20T12:59:30.075Z,64.80
2018-01-20T13:01:56.454Z,63.43
2018-01-20T13:04:23.023Z,61.27
2018-01-20T13:06:49.390Z,54.53
2018-01-20T13:09:15.750Z,66.37
2018-01-20T13:11:42.208Z,61.33
2018-01-20T13:14:08.598Z,52.07
2018-01-20T13:16:35.004Z,73.83
2018-01-20T13:19:01.380Z,80.37
2018-01-20T13:21:27.766Z,78.63
2018-01-20T13:23:54.091Z,97.90
2018-01-20T13:26:20.450Z,83.40
2018-01-20T13:28:46.807Z,83.13
2018-01-20T13:31:13.191Z,85.40
2018-01-20T13:33:39.571Z,79.27
2018-01-20T13:36:05.967Z,85.43
2018-01-20T13:38:32.359Z,89.63
2018-01-20T13:40:58.723Z,99.30
2018-01-20T13:43:25.086Z,106.40
2018-01-20T13:45:51.558Z,107.90
2018-01-20T13:48:17.906Z,86.43
2018-01-20T13:50:44.268Z,89.60
2018-01-20T13:53:10.660Z,85.80
2018-01-20T13:55:37.000Z,97.33
2018-01-20T13:58:03.335Z,96.87
2018-01-20T14:00:29.776Z,103.00
2018-01-20T14:02:56.154Z,98.30
2018-01-20T14:05:22.523Z,91.47
2018-01-20T14:07:49.230Z,101.53
2018-01-20T14:10:15.607Z,123.90
2018-01-20T14:12:42.574Z,131.60
2018-01-20T14:15:08.935Z,122.67
2018-01-20T14:17:35.299Z,115.70
2018-01-20T14:20:01.643Z,107.27
2018-01-20T14:22:28.043Z,107.73
2018-01-20T14:24:54.392Z,142.27
2018-01-20T14:27:20.991Z,135.30
2018-01-20T14:29:47.490Z,123.20
2018-01-20T14:32:13.859Z,136.23
2018-01-20T14:34:40.195Z,140.00
2018-01-20T14:37:06.678Z,143.40
2018-01-20T14:39:33.116Z,128.23
2018-01-20T14:41:59.451Z,139.63
2018-01-20T14:44:25.831Z,135.37
2018-01-20T14:46:52.191Z,138.30
2018-01-20T14:49:18.633Z,128.60
2018-01-20T14:51:45.009Z,134.30
2018-01-20T14:54:11.462Z,117.83
2018-01-20T14:56:37.831Z,97.37
2018-01-20T14:59:04.231Z,101.70
2018-01-20T15:01:30.684Z,114.03
2018-01-20T15:03:57.116Z,105.17
2018-01-20T15:06:23.504Z,103.40
2018-01-20T15:08:49.878Z,101.47
2018-01-20T15:11:16.363Z,110.53
2018-01-20T15:13:42.745Z,110.07
2018-01-20T15:16:09.104Z,122.57
2018-01-20T15:18:36.583Z,115.23
2018-01-20T15:21:02.953Z,108.03
2018-01-20T15:23:29.375Z,108.57
2018-01-20T15:25:55.703Z,103.40
2018-01-20T15:28:22.044Z,101.30
2018-01-20T15:30:48.467Z,98.60
2018-01-20T15:33:14.843Z,88.83
2018-01-20T15:35:41.247Z,86.03
2018-01-20T15:38:07.589Z,71.50
2018-01-20T15:40:33.939Z,68.73
2018-01-20T15:43:00.292Z,68.47
2018-01-20T15:45:26.661Z,68.23
2018-01-20T15:47:53.078Z,59.07
2018-01-20T15:50:19.443Z,73.43
2018-01-20T15:52:45.791Z,76.17
2018-01-20T15:55:12.213Z,66.43
2018-01-20T15:57:38.645Z,80.53
2018-01-20T16:00:05.169Z,72.43
2018-01-20T16:02:31.518Z,68.47
2018-01-20T16:04:57.859Z,68.30
2018-01-20T16:07:24.255Z,65.63
2018-01-20T16:09:50.680Z,62.43
2018-01-20T16:12:17.057Z,71.63
2018-01-20T16:14:43.399Z,83.77
2018-01-20T16:17:09.739Z,91.23
2018-01-20T16:19:36.148Z,93.50
2018-01-20T16:22:02.495Z,85.20
2018-01-20T16:24:28.975Z,74.23
2018-01-20T16:26:55.347Z,82.53
2018-01-20T16:29:21.692Z,101.10
2018-01-20T16:31:48.064Z,93.67
2018-01-20T16:34:14.428Z,98.67
2018-01-20T16:36:40.835Z,91.60
2018-01-20T16:39:07.294Z,82.67
2018-01-20T16:41:33.625Z,96.07
2018-01-20T16:44:00.001Z,97.67
2018-01-20T16:46:26.424Z,80.03
2018-01-20T16:48:52.771Z,59.30
2018-01-20T16:51:19.211Z,60.47
2018-01-20T16:53:45.627Z,59.20
2018-01-20T16:56:12.035Z,62.40
2018-01-20T16:58:38.392Z,62.07
2018-01-20T17:01:04.760Z,66.53
2018-01-20T17:03:31.132Z,62.97
2018-01-20T17:05:57.549Z,74.13
2018-01-20T17:08:23.959Z,79.23
2018-01-20T17:10:50.417Z,70.40
2018-01-20T17:13:16.784Z,60.73
2018-01-20T17:15:43.188Z,65.80
2018-01-20T17:18:09.519Z,57.60
2018-01-20T17:20:36.047Z,54.63
2018-01-20T17:23:02.384Z,52.33
2018-01-20T17:25:28.748Z,49.17
2018-01-20T17:27:55.186Z,46.97
2018-01-20T17:30:21.524Z,50.80
2018-01-20T17:32:47.887Z,51.77
2018-01-20T17:35:14.303Z,41.23
2018-01-20T17:37:40.656Z,40.67
2018-01-20T17:40:07.036Z,39.60
2018-01-20T17:42:33.432Z,39.93
2018-01-20T17:44:59.836Z,39.50
2018-01-20T17:47:26.171Z,40.07
2018-01-20T17:49:52.560Z,34.67
2018-01-20T17:52:18.956Z,35.03
2018-01-20T17:54:45.390Z,36.97
2018-01-20T17:57:11.748Z,33.67
2018-01-20T17:59:38.120Z,33.27
2018-01-20T18:02:04.558Z,40.53
2018-01-20T18:04:30.955Z,35.00
2018-01-20T18:06:57.353Z,40.33
2018-01-20T18:09:23.715Z,39.13
2018-01-20T18:11:50.176Z,39.50
2018-01-20T18:14:16.701Z,37.63
2018-01-20T18:16:43.138Z,43.43
2018-01-20T18:19:09.603Z,43.97
2018-01-20T18:21:35.987Z,45.80
2018-01-20T18:24:02.411Z,50.83
2018-01-20T18:26:28.821Z,51.23
2018-01-20T18:28:55.332Z,50.07
2018-01-20T18:31:21.688Z,49.70
2018-01-20T18:33:48.087Z,48.30
2018-01-20T18:36:14.480Z,47.53
2018-01-20T18:38:40.862Z,49.33
2018-01-20T18:41:07.239Z,46.73
2018-01-20T18:43:33.595Z,44.07
2018-01-20T18:45:59.988Z,43.83
2018-01-20T18:48:26.343Z,46.10
2018-01-20T18:50:52.692Z,41.87
2018-01-20T18:53:19.091Z,45.80
2018-01-20T18:55:45.510Z,38.87
2018-01-20T18:58:11.891Z,46.43
2018-01-20T19:00:38.298Z,43.57
2018-01-20T19:03:04.643Z,38.90
2018-01-20T19:05:31.012Z,39.20
2018-01-20T19:07:57.407Z,40.27
2018-01-20T19:10:23.793Z,37.83
2018-01-20T19:12:50.184Z,39.53
2018-01-20T19:15:16.545Z,34.00
2018-01-20T19:17:42.931Z,32.07
2018-01-20T19:20:09.329Z,37.07
2018-01-20T19:22:35.684Z,33.87
2018-01-20T19:25:02.096Z,31.37
2018-01-20T19:27:28.432Z,32.97
2018-01-20T19:29:54.771Z,32.83
2018-01-20T19:32:21.140Z,31.43
2018-01-20T19:34:47.495Z,26.67
2018-01-20T19:37:13.855Z,25.77
2018-01-20T19:39:40.283Z,21.27
2018-01-20T19:42:06.712Z,16.20
2018-01-20T19:44:33.072Z,15.10
2018-01-20T19:46:59.439Z,10.37
2018-01-20T19:49:25.797Z,10.43
2018-01-20T19:51:52.328Z,9.50
2018-01-20T19:54:18.754Z,9.23
2018-01-20T19:56:45.079Z,7.93
2018-01-20T19:59:11.545Z,8.53
2018-01-20T20:01:37.919Z,8.93
2018-01-20T20:04:04.283Z,9.07
2018-01-20T20:06:30.703Z,9.30
2018-01-20T20:08:57.072Z,7.87
2018-01-20T20:11:23.407Z,7.27
2018-01-20T20:13:49.769Z,9.40
2018-01-20T20:16:16.270Z,7.83
2018-01-20T20:18:42.651Z,7.67
2018-01-20T20:21:09.084Z,7.13
2018-01-20T20:23:35.579Z,7.50
2018-01-20T20:26:01.980Z,7.00
2018-01-20T20:28:28.348Z,7.73
2018-01-20T20:30:54.734Z,6.43
2018-01-20T20:33:21.235Z,7.97
2018-01-20T20:35:47.712Z,6.40
2018-01-20T20:38:14.103Z,5.50
2018-01-20T20:40:40.475Z,6.37
2018-01-20T20:43:06.874Z,7.27
2018-01-20T20:45:33.343Z,7.93
2018-01-20T20:47:59.818Z,8.50
2018-01-20T20:50:26.181Z,8.20
2018-01-20T20:52:52.615Z,9.63
2018-01-20T20:55:19.022Z,10.40
2018-01-20T20:57:45.405Z,9.93
2018-01-20T21:00:11.765Z,12.20
2018-01-20T21:02:38.132Z,9.50
2018-01-20T21:05:04.685Z,9.70
2018-01-20T21:07:31.095Z,11.53
2018-01-20T21:09:57.514Z,11.30
2018-01-20T21:12:23.883Z,11.33
2018-01-20T21:14:50.235Z,13.73
2018-01-20T21:17:16.619Z,14.03
2018-01-20T21:19:43.126Z,11.27
2018-01-20T21:22:09.513Z,6.43
2018-01-20T21:24:35.943Z,6.03
2018-01-20T21:27:02.332Z,6.40
2018-01-20T21:29:28.683Z,4.73
2018-01-20T21:31:55.104Z,4.53
2018-01-20T21:34:21.489Z,4.33
2018-01-20T21:36:47.916Z,5.87
2018-01-20T21:39:14.334Z,7.63
2018-01-20T21:41:40.736Z,7.30
2018-01-20T21:44:07.122Z,7.00
2018-01-20T21:46:33.535Z,8.87
2018-01-20T21:48:59.990Z,11.07
2018-01-20T21:51:26.363Z,28.10
2018-01-20T21:53:52.807Z,32.37
2018-01-20T21:56:19.316Z,35.03
2018-01-20T21:58:45.750Z,29.70
2018-01-20T22:01:12.271Z,31.50
2018-01-20T22:03:38.680Z,33.87
2018-01-20T22:06:05.152Z,30.63
2018-01-20T22:08:31.571Z,28.73
2018-01-20T22:10:58.019Z,25.30
2018-01-20T22:13:24.472Z,21.43
2018-01-20T22:15:50.841Z,17.20
2018-01-20T22:18:17.422Z,21.53
2018-01-20T22:20:43.930Z,21.97
2018-01-20T22:23:10.286Z,22.90
2018-01-20T22:25:36.729Z,27.93
2018-01-20T22:28:03.187Z,34.30
2018-01-20T22:30:29.689Z,44.37
2018-01-20T22:32:56.328Z,37.80
2018-01-20T22:35:22.735Z,33.20
2018-01-20T22:37:49.099Z,28.47
2018-01-20T22:40:15.730Z,26.20
2018-01-20T22:42:42.147Z,25.53
2018-01-20T22:45:08.775Z,24.60
2018-01-20T22:47:35.439Z,26.53
2018-01-20T22:50:01.860Z,25.00
2018-01-20T22:52:28.202Z,23.53
2018-01-20T22:54:54.563Z,26.60
2018-01-20T22:57:20.983Z,26.87
2018-01-20T22:59:47.511Z,25.40
2018-01-20T23:02:14.071Z,23.57
2018-01-20T23:04:40.524Z,24.07
2018-01-20T23:07:06.956Z,21.10
2018-01-20T23:09:33.439Z,20.47
2018-01-20T23:11:59.815Z,21.90
2018-01-20T23:14:26.232Z,25.73
2018-01-20T23:16:52.611Z,24.50
2018-01-20T23:19:19.023Z,23.97
2018-01-20T23:21:45.459Z,28.27
2018-01-20T23:24:11.835Z,31.43
2018-01-20T23:26:38.285Z,32.37
2018-01-20T23:29:04.687Z,30.83
2018-01-20T23:31:31.084Z,31.00
2018-01-20T23:33:57.434Z,30.43
2018-01-20T23:36:23.873Z,35.67
2018-01-20T23:38:50.234Z,31.20
2018-01-20T23:41:16.766Z,31.60
2018-01-20T23:43:43.304Z,33.53
2018-01-20T23:46:09.660Z,30.07
2018-01-20T23:48:36.019Z,31.63
2018-01-20T23:51:02.436Z,38.07
2018-01-20T23:53:28.935Z,47.33
2018-01-20T23:55:55.314Z,42.53
2018-01-20T23:58:21.735Z,37.80
